Time;durP1;ratioP1;P1;durP2;ratioP2;P2;SDS_P1;SDS_P2;PMS_P1;PMS_P2;Temp;Humidity;BMP_temperature;BMP_pressure;BME280_temperature;BME280_humidity;BME280_pressure;Samples;Min_cycle;Max_cycle;Signal;HPM_P1;HPM_P2
2022/08/05 00:02:01;;;;;;;10.05;6.82;;;17.60;99.90;;;;;;4921474;28;89476;-32
2022/08/05 00:04:27;;;;;;;13.73;6.30;;;17.50;99.90;;;;;;4921156;28;89990;-32
2022/08/05 00:06:52;;;;;;;12.90;7.05;;;17.40;99.90;;;;;;4920246;28;89813;-31
2022/08/05 00:09:18;;;;;;;7.25;6.03;;;17.40;99.90;;;;;;4921412;28;89847;-34
2022/08/05 00:11:44;;;;;;;7.88;6.80;;;17.40;99.90;;;;;;4920965;28;89882;-35
2022/08/05 00:14:09;;;;;;;7.60;5.97;;;17.30;99.90;;;;;;4921382;28;89313;-34
2022/08/05 00:16:35;;;;;;;6.30;5.35;;;17.30;99.90;;;;;;4921519;28;90667;-32
2022/08/05 00:19:00;;;;;;;7.10;6.25;;;17.30;99.90;;;;;;5007289;22;89777;-34
2022/08/05 00:21:26;;;;;;;8.85;6.13;;;17.30;99.90;;;;;;5000302;28;90161;-33
2022/08/05 00:23:51;;;;;;;7.13;5.65;;;17.30;99.90;;;;;;4999398;28;89222;-30
2022/08/05 00:26:18;;;;;;;12.65;5.60;;;17.30;99.90;;;;;;4999821;28;89750;-30
2022/08/05 00:28:44;;;;;;;10.43;6.50;;;17.30;99.90;;;;;;4999365;28;90794;-31
2022/08/05 00:31:09;;;;;;;11.77;7.53;;;17.30;99.90;;;;;;4999700;28;90118;-36
2022/08/05 00:33:35;;;;;;;8.13;7.05;;;17.30;99.90;;;;;;5000049;28;89234;-34
2022/08/05 00:36:01;;;;;;;8.10;6.82;;;17.30;99.90;;;;;;4999002;28;90231;-31
2022/08/05 00:38:26;;;;;;;7.78;6.25;;;17.30;99.90;;;;;;4998863;28;89906;-30
2022/08/05 00:40:54;;;;;;;10.43;7.57;;;17.30;99.90;;;;;;4999409;28;89104;-31
2022/08/05 00:43:20;;;;;;;10.68;6.80;;;17.30;99.90;;;;;;4999704;28;87911;-31
2022/08/05 00:45:46;;;;;;;8.27;6.72;;;17.30;99.90;;;;;;4999937;28;90412;-35
2022/08/05 00:48:18;;;;;;;9.57;6.47;;;17.30;99.90;;;;;;4999355;28;90944;-32
2022/08/05 00:50:46;;;;;;;7.55;6.22;;;17.40;99.90;;;;;;4998983;28;89827;-30
2022/08/05 00:53:13;;;;;;;6.50;5.82;;;17.40;99.90;;;;;;4998805;28;89763;-33
2022/08/05 00:55:38;;;;;;;8.02;6.55;;;17.50;99.90;;;;;;4999308;28;90391;-32
2022/08/05 00:58:04;;;;;;;7.75;6.95;;;17.50;99.90;;;;;;4999782;28;89179;-33
2022/08/05 01:00:30;;;;;;;10.10;7.68;;;17.50;99.90;;;;;;4998476;28;90090;-33
2022/08/05 01:02:57;;;;;;;16.17;7.88;;;17.50;99.90;;;;;;4997581;28;88635;-35
2022/08/05 01:05:23;;;;;;;6.90;5.65;;;17.60;99.90;;;;;;4997154;28;90380;-31
2022/08/05 01:07:49;;;;;;;9.60;7.20;;;17.60;99.90;;;;;;4999520;28;89971;-35
2022/08/05 01:10:17;;;;;;;11.10;7.22;;;17.60;99.90;;;;;;4999332;28;89509;-32
2022/08/05 01:12:44;;;;;;;;;;;17.60;99.90;;;;;;4999922;28;89231;-33
2022/08/05 01:15:11;;;;;;;12.05;6.45;;;17.60;99.90;;;;;;5000722;28;91724;-32
2022/08/05 01:17:38;;;;;;;6.32;5.75;;;17.60;99.90;;;;;;4998343;28;90159;-31
2022/08/05 01:20:39;;;;;;;9.82;7.03;;;17.60;99.90;;;;;;5000033;28;90312;-32
2022/08/05 01:23:29;;;;;;;19.98;6.80;;;17.60;99.90;;;;;;4979465;28;89655;-31
2022/08/05 01:26:30;;;;;;;8.18;6.72;;;17.60;99.90;;;;;;4998924;28;89835;-32
2022/08/05 01:29:12;;;;;;;8.82;7.50;;;17.60;99.90;;;;;;4999629;28;89350;-34
2022/08/05 01:31:48;;;;;;;9.13;7.10;;;17.60;99.90;;;;;;4999346;28;89033;-32
2022/08/05 01:34:19;;;;;;;7.25;6.53;;;17.50;99.90;;;;;;4999110;28;89744;-34
2022/08/05 01:37:23;;;;;;;8.55;7.20;;;17.60;99.90;;;;;;4999468;28;90218;-31
2022/08/05 01:39:51;;;;;;;15.63;7.32;;;17.50;99.90;;;;;;4998249;28;89850;-30
2022/08/05 01:42:19;;;;;;;9.40;6.53;;;17.50;99.90;;;;;;4998474;28;89203;-34
2022/08/05 01:44:47;;;;;;;8.77;6.63;;;17.50;99.90;;;;;;4998436;28;89829;-33
2022/08/05 01:47:15;;;;;;;6.63;6.07;;;17.50;99.90;;;;;;4998195;28;90130;-35
2022/08/05 01:49:42;;;;;;;12.23;7.13;;;17.50;99.90;;;;;;5001694;28;89463;-34
2022/08/05 01:52:10;;;;;;;8.68;7.18;;;17.50;99.90;;;;;;5002734;28;89570;-32
2022/08/05 01:54:41;;;;;;;7.35;6.57;;;17.50;99.90;;;;;;5002485;28;89060;-33
2022/08/05 01:57:08;;;;;;;8.55;7.65;;;17.50;99.90;;;;;;5002993;28;91371;-31
2022/08/05 01:59:37;;;;;;;11.68;6.25;;;17.50;99.90;;;;;;5001975;28;89756;-32
2022/08/05 02:02:04;;;;;;;9.00;6.35;;;17.50;99.90;;;;;;5001369;28;88789;-37
2022/08/05 02:04:33;;;;;;;6.68;5.95;;;17.60;99.90;;;;;;5002394;28;89621;-31
2022/08/05 02:06:59;;;;;;;10.00;7.45;;;17.50;99.90;;;;;;5002401;28;90316;-35
2022/08/05 02:09:25;;;;;;;6.90;6.15;;;17.50;99.90;;;;;;5001694;28;89660;-32
2022/08/05 02:12:15;;;;;;;10.45;6.68;;;17.50;99.90;;;;;;5001264;28;90139;-33
2022/08/05 02:14:49;;;;;;;8.02;7.28;;;17.50;99.90;;;;;;5001725;28;90080;-30
2022/08/05 02:17:32;;;;;;;8.88;6.53;;;17.50;99.90;;;;;;5002228;28;89608;-35
2022/08/05 02:20:01;;;;;;;11.07;6.47;;;17.50;99.90;;;;;;5001827;28;89912;-32
2022/08/05 02:22:38;;;;;;;7.82;5.85;;;17.50;99.90;;;;;;5000522;28;91706;-33
2022/08/05 02:25:10;;;;;;;8.03;5.87;;;17.50;99.90;;;;;;5001846;28;88843;-31
2022/08/05 02:27:39;;;;;;;7.95;5.82;;;17.50;99.90;;;;;;5001455;28;90383;-34
2022/08/05 02:30:07;;;;;;;16.70;6.43;;;17.50;99.90;;;;;;5001690;28;89843;-32
2022/08/05 02:32:33;;;;;;;9.30;5.25;;;17.50;99.90;;;;;;5001988;28;89429;-33
2022/08/05 02:35:04;;;;;;;13.65;6.80;;;17.50;99.90;;;;;;5001894;28;89777;-31
2022/08/05 02:37:32;;;;;;;6.57;5.05;;;17.50;99.90;;;;;;5001578;28;90277;-33
2022/08/05 02:39:59;;;;;;;10.88;6.13;;;17.50;99.90;;;;;;5000868;28;89703;-30
2022/08/05 02:42:26;;;;;;;7.23;6.27;;;17.50;99.90;;;;;;4999609;28;89162;-32
2022/08/05 02:44:52;;;;;;;7.22;6.18;;;17.50;99.90;;;;;;5002413;28;88375;-33
2022/08/05 02:47:20;;;;;;;13.10;6.30;;;17.50;99.90;;;;;;5000921;28;90163;-33
2022/08/05 02:49:46;;;;;;;10.13;6.43;;;17.50;99.90;;;;;;5001503;28;90496;-34
2022/08/05 02:52:17;;;;;;;7.97;6.45;;;17.50;99.90;;;;;;5001850;28;89666;-32
2022/08/05 02:54:44;;;;;;;9.35;5.88;;;17.50;99.90;;;;;;5002009;28;89021;-31
2022/08/05 02:57:13;;;;;;;6.45;5.57;;;17.50;99.90;;;;;;5000702;28;90869;-33
2022/08/05 02:59:45;;;;;;;12.88;6.53;;;17.50;99.90;;;;;;5000657;28;90753;-32
2022/08/05 03:02:17;;;;;;;11.60;6.85;;;17.50;99.90;;;;;;5000295;28;90507;-34
2022/08/05 03:04:43;;;;;;;12.07;6.65;;;17.50;99.90;;;;;;5000988;28;88869;-32
2022/08/05 03:07:10;;;;;;;8.10;6.75;;;17.50;99.90;;;;;;5000932;28;91654;-34
2022/08/05 03:09:36;;;;;;;7.63;5.05;;;17.50;99.90;;;;;;5001257;28;89917;-34
2022/08/05 03:12:03;;;;;;;9.68;5.75;;;17.50;99.90;;;;;;5000857;28;89590;-31
2022/08/05 03:14:29;;;;;;;6.35;5.75;;;17.50;99.90;;;;;;5000846;28;90015;-35
2022/08/05 03:16:54;;;;;;;6.13;5.25;;;17.50;99.90;;;;;;5001547;28;90336;-31
2022/08/05 03:19:20;;;;;;;9.45;5.78;;;17.50;99.90;;;;;;5000773;28;90572;-31
2022/08/05 03:21:45;;;;;;;6.15;5.55;;;17.50;99.90;;;;;;5000626;28;89462;-34
2022/08/05 03:24:11;;;;;;;7.40;5.78;;;17.50;99.90;;;;;;5000176;28;89862;-31
2022/08/05 03:26:37;;;;;;;10.40;7.25;;;17.50;99.90;;;;;;5000821;28;90538;-35
2022/08/05 03:29:03;;;;;;;7.82;6.35;;;17.50;99.90;;;;;;5000820;28;89480;-32
2022/08/05 03:31:30;;;;;;;8.48;6.00;;;17.50;99.90;;;;;;5000663;28;88579;-32
2022/08/05 03:33:56;;;;;;;7.80;6.32;;;17.40;99.90;;;;;;5000638;28;88432;-33
2022/08/05 03:36:23;;;;;;;5.78;5.22;;;17.50;99.90;;;;;;4999598;28;91053;-32
2022/08/05 03:38:48;;;;;;;7.10;5.68;;;17.50;99.90;;;;;;5000143;28;89759;-31
2022/08/05 03:41:15;;;;;;;6.70;6.20;;;17.50;99.90;;;;;;5001083;28;89782;-31
2022/08/05 03:43:41;;;;;;;7.10;5.43;;;17.50;99.90;;;;;;4999475;28;89757;-34
2022/08/05 03:46:07;;;;;;;8.75;4.95;;;17.40;99.90;;;;;;5000343;28;89569;-35
2022/08/05 03:48:33;;;;;;;6.30;5.70;;;17.40;99.90;;;;;;5000568;28;90689;-32
2022/08/05 03:51:16;;;;;;;7.90;6.53;;;17.40;99.90;;;;;;5000081;28;90512;-31
2022/08/05 03:53:54;;;;;;;6.95;5.38;;;17.40;99.90;;;;;;5000878;28;89320;-32
2022/08/05 03:56:32;;;;;;;5.43;5.03;;;17.40;99.90;;;;;;4987659;28;90081;-31
2022/08/05 03:59:01;;;;;;;11.85;5.95;;;17.40;99.90;;;;;;5000305;28;89949;-32
2022/08/05 04:01:30;;;;;;;6.55;5.57;;;17.40;99.90;;;;;;5000658;28;89624;-31
2022/08/05 04:03:58;;;;;;;6.68;5.93;;;17.40;99.90;;;;;;4999940;28;89666;-32
2022/08/05 04:06:24;;;;;;;9.98;5.68;;;17.40;99.90;;;;;;4999879;28;90321;-30
2022/08/05 04:08:51;;;;;;;6.13;5.18;;;17.30;99.90;;;;;;5000447;28;90347;-34
2022/08/05 04:11:17;;;;;;;10.90;5.78;;;17.40;99.90;;;;;;5000036;28;89962;-32
2022/08/05 04:13:44;;;;;;;9.90;5.75;;;17.30;99.90;;;;;;4999951;28;90554;-33
2022/08/05 04:16:12;;;;;;;7.57;6.20;;;17.30;99.90;;;;;;4999691;28;90286;-33
2022/08/05 04:18:38;;;;;;;8.77;6.28;;;17.30;99.90;;;;;;4999575;28;89852;-32
2022/08/05 04:21:05;;;;;;;7.93;5.18;;;17.30;99.90;;;;;;5000100;28;89474;-34
2022/08/05 04:23:32;;;;;;;5.03;4.70;;;17.30;99.90;;;;;;4999983;28;89310;-36
2022/08/05 04:25:58;;;;;;;7.45;5.90;;;17.30;99.90;;;;;;5000942;28;90202;-35
2022/08/05 04:28:24;;;;;;;6.32;5.72;;;17.30;99.90;;;;;;4999183;28;89192;-34
2022/08/05 04:30:49;;;;;;;6.00;5.40;;;17.30;99.90;;;;;;4999487;28;89567;-34
2022/08/05 04:33:15;;;;;;;6.90;5.28;;;17.30;99.90;;;;;;4999739;28;89001;-31
2022/08/05 04:35:42;;;;;;;7.97;5.32;;;17.30;99.90;;;;;;4999680;28;90198;-32
2022/08/05 04:38:08;;;;;;;8.38;6.50;;;17.30;99.90;;;;;;4999789;28;91041;-32
2022/08/05 04:40:36;;;;;;;7.00;6.32;;;17.30;99.90;;;;;;4999759;28;89051;-30
2022/08/05 04:43:02;;;;;;;7.60;5.13;;;17.40;99.90;;;;;;4999672;28;88794;-33
2022/08/05 04:45:28;;;;;;;8.95;5.32;;;17.40;99.90;;;;;;5000171;28;89982;-31
2022/08/05 04:47:53;;;;;;;8.32;5.60;;;17.40;99.90;;;;;;5000068;28;89848;-32
2022/08/05 04:50:19;;;;;;;6.70;6.07;;;17.40;99.90;;;;;;4999625;28;88424;-33
2022/08/05 04:52:45;;;;;;;11.10;7.00;;;17.40;99.90;;;;;;5000000;28;89604;-30
2022/08/05 04:55:10;;;;;;;11.18;5.10;;;17.40;99.90;;;;;;4999183;28;89919;-32
2022/08/05 04:57:36;;;;;;;8.25;5.35;;;17.40;99.90;;;;;;4999528;28;89571;-30
2022/08/05 05:00:05;;;;;;;6.60;5.90;;;17.40;99.90;;;;;;4999451;28;90077;-33
2022/08/05 05:02:30;;;;;;;6.10;5.43;;;17.40;99.90;;;;;;4997746;28;90256;-33
2022/08/05 05:04:56;;;;;;;11.20;5.35;;;17.40;99.90;;;;;;4999539;28;90572;-34
2022/08/05 05:07:22;;;;;;;7.18;5.47;;;17.40;99.90;;;;;;4998740;28;91413;-32
2022/08/05 05:09:47;;;;;;;8.48;5.35;;;17.40;99.90;;;;;;4999306;28;89916;-31
2022/08/05 05:12:13;;;;;;;6.45;5.20;;;17.40;99.90;;;;;;5000159;28;87986;-31
2022/08/05 05:14:39;;;;;;;6.65;5.22;;;17.40;99.90;;;;;;4998485;28;90573;-32
2022/08/05 05:17:04;;;;;;;6.53;5.90;;;17.40;99.90;;;;;;4999591;28;89544;-32
2022/08/05 05:19:30;;;;;;;8.55;6.32;;;17.40;99.90;;;;;;4997748;28;90230;-32
2022/08/05 05:21:55;;;;;;;6.15;5.03;;;17.50;99.90;;;;;;4999492;28;89671;-30
2022/08/05 05:24:21;;;;;;;5.28;4.78;;;17.50;99.90;;;;;;4998604;28;90817;-31
2022/08/05 05:26:47;;;;;;;7.65;5.15;;;17.50;99.90;;;;;;4998895;28;90615;-32
2022/08/05 05:29:13;;;;;;;10.32;6.43;;;17.50;99.90;;;;;;4998846;28;90685;-31
2022/08/05 05:31:38;;;;;;;5.25;4.78;;;17.50;99.90;;;;;;4999806;28;89293;-30
2022/08/05 05:34:04;;;;;;;7.55;6.10;;;17.60;99.90;;;;;;4999297;28;90263;-31
2022/08/05 05:36:30;;;;;;;5.50;4.88;;;17.60;99.90;;;;;;4999200;28;88919;-32
2022/08/05 05:38:56;;;;;;;5.65;5.05;;;17.60;99.90;;;;;;4998939;28;90429;-33
2022/08/05 05:41:22;;;;;;;5.88;5.25;;;17.60;99.90;;;;;;4999230;28;88216;-31
2022/08/05 05:43:47;;;;;;;5.82;4.43;;;17.70;99.90;;;;;;4998924;28;90515;-30
2022/08/05 05:46:13;;;;;;;6.13;5.53;;;17.70;99.90;;;;;;4999521;28;89878;-31
2022/08/05 05:48:40;;;;;;;5.10;4.60;;;17.60;99.90;;;;;;4999184;28;89442;-31
2022/08/05 05:51:07;;;;;;;5.03;4.38;;;17.60;99.90;;;;;;4997883;28;89633;-35
2022/08/05 05:53:33;;;;;;;5.70;4.82;;;17.60;99.90;;;;;;4998883;28;89523;-32
2022/08/05 05:55:58;;;;;;;4.47;4.07;;;17.60;99.90;;;;;;4998618;28;90333;-31
2022/08/05 05:58:24;;;;;;;5.00;4.53;;;17.70;99.90;;;;;;4998767;28;89226;-32
2022/08/05 06:00:49;;;;;;;8.40;4.57;;;17.70;99.90;;;;;;4998877;28;90129;-34
2022/08/05 06:03:15;;;;;;;5.45;3.88;;;17.70;99.90;;;;;;4998715;28;90480;-34
2022/08/05 06:05:40;;;;;;;5.53;4.57;;;17.70;99.90;;;;;;4999184;28;89493;-31
2022/08/05 06:08:06;;;;;;;5.38;4.88;;;17.70;99.90;;;;;;4998784;28;89500;-32
2022/08/05 06:10:32;;;;;;;4.85;4.45;;;17.80;99.90;;;;;;4998499;28;89960;-34
2022/08/05 06:12:58;;;;;;;4.68;4.18;;;17.80;99.90;;;;;;4998394;28;89121;-33
2022/08/05 06:15:24;;;;;;;5.32;4.38;;;17.80;99.90;;;;;;4998136;28;90511;-32
2022/08/05 06:17:50;;;;;;;7.25;4.60;;;17.80;99.90;;;;;;4998455;28;89031;-32
2022/08/05 06:20:16;;;;;;;6.90;4.07;;;17.80;99.90;;;;;;4998448;28;89494;-30
2022/08/05 06:22:41;;;;;;;4.65;4.25;;;17.80;99.90;;;;;;4998833;28;90361;-34
2022/08/05 06:25:07;;;;;;;5.70;3.83;;;17.80;99.90;;;;;;4998019;28;89054;-32
2022/08/05 06:27:34;;;;;;;7.57;4.22;;;17.80;99.90;;;;;;4997735;28;90550;-33
2022/08/05 06:30:00;;;;;;;4.80;4.38;;;17.90;99.90;;;;;;4999061;28;89016;-30
2022/08/05 06:32:27;;;;;;;9.27;4.40;;;17.90;99.90;;;;;;4997848;28;90419;-33
2022/08/05 06:34:53;;;;;;;4.50;4.07;;;18.00;99.90;;;;;;4998572;28;89843;-35
2022/08/05 06:37:19;;;;;;;4.57;4.18;;;18.00;99.90;;;;;;5001849;28;88960;-30
2022/08/05 06:39:45;;;;;;;4.53;4.13;;;18.10;99.90;;;;;;5001526;28;89799;-30
2022/08/05 06:42:12;;;;;;;4.85;4.43;;;18.10;99.90;;;;;;5001933;28;90200;-31
2022/08/05 06:44:37;;;;;;;6.53;3.90;;;18.10;99.90;;;;;;5001492;28;91839;-32
2022/08/05 06:47:03;;;;;;;6.97;4.03;;;18.10;99.90;;;;;;5001923;28;89259;-32
2022/08/05 06:49:29;;;;;;;5.03;4.30;;;18.10;99.90;;;;;;5001743;28;88362;-35
2022/08/05 06:51:54;;;;;;;5.75;4.32;;;18.10;99.90;;;;;;5001545;28;90033;-33
2022/08/05 06:54:20;;;;;;;7.30;3.50;;;18.10;99.90;;;;;;5001604;28;89509;-32
2022/08/05 06:56:46;;;;;;;7.53;4.03;;;18.10;99.90;;;;;;5001730;28;91251;-33
2022/08/05 06:59:13;;;;;;;4.30;3.38;;;18.20;99.90;;;;;;4999790;28;89212;-33
2022/08/05 07:01:39;;;;;;;4.83;3.73;;;18.20;99.90;;;;;;5002270;28;89977;-31
2022/08/05 07:04:04;;;;;;;3.88;3.58;;;18.30;99.90;;;;;;4995306;28;90625;-31
2022/08/05 07:06:30;;;;;;;4.65;3.88;;;18.40;99.90;;;;;;5000525;28;89504;-31
2022/08/05 07:08:56;;;;;;;8.57;4.07;;;18.40;99.90;;;;;;5000032;28;89534;-34
2022/08/05 07:11:22;;;;;;;4.20;2.97;;;18.50;99.90;;;;;;5000983;28;90630;-32
2022/08/05 07:16:51;;;;;;;3.90;3.55;;;18.50;99.90;;;;;;4997373;28;89445;-30
2022/08/05 07:19:18;;;;;;;7.65;4.38;;;18.60;99.90;;;;;;5000528;28;87837;-32
2022/08/05 07:21:47;;;;;;;4.03;3.65;;;18.60;99.90;;;;;;5001168;28;91185;-32
2022/08/05 07:24:13;;;;;;;5.00;3.38;;;18.70;99.90;;;;;;5000459;28;89848;-32
2022/08/05 07:26:40;;;;;;;3.35;3.05;;;18.70;99.90;;;;;;5000693;28;89456;-33
2022/08/05 07:29:07;;;;;;;5.32;3.95;;;18.80;99.90;;;;;;5001015;28;90142;-30
2022/08/05 07:31:33;;;;;;;3.83;2.90;;;18.80;99.90;;;;;;5001694;28;90234;-31
2022/08/05 07:33:58;;;;;;;3.83;3.42;;;18.80;99.90;;;;;;5001064;28;90072;-31
2022/08/05 07:36:24;;;;;;;4.43;3.58;;;18.90;99.90;;;;;;5000947;28;90076;-31
2022/08/05 07:38:50;;;;;;;5.22;3.13;;;18.80;99.90;;;;;;5000957;28;88542;-30
2022/08/05 07:41:18;;;;;;;5.47;3.47;;;18.90;99.90;;;;;;5001280;28;89815;-32
2022/08/05 07:43:45;;;;;;;4.65;3.30;;;18.90;99.90;;;;;;5000610;28;89686;-34
2022/08/05 07:46:11;;;;;;;3.17;2.80;;;19.00;99.90;;;;;;5000690;28;90711;-30
2022/08/05 07:48:37;;;;;;;6.88;3.33;;;19.00;99.90;;;;;;5000440;28;88672;-33
2022/08/05 07:51:03;;;;;;;7.13;3.42;;;19.20;99.90;;;;;;5000924;28;90166;-30
2022/08/05 07:53:29;;;;;;;3.15;2.92;;;19.30;99.90;;;;;;5000324;28;89346;-32
2022/08/05 07:55:54;;;;;;;3.03;2.80;;;19.50;99.90;;;;;;5000740;28;90299;-34
2022/08/05 07:58:20;;;;;;;4.13;3.25;;;19.50;99.90;;;;;;5001088;28;88806;-33
2022/08/05 08:00:45;;;;;;;5.13;2.90;;;19.50;99.90;;;;;;4999116;28;90210;-35
2022/08/05 08:03:12;;;;;;;3.92;2.88;;;19.50;99.90;;;;;;5000780;28;88603;-30
2022/08/05 08:05:42;;;;;;;3.53;3.03;;;19.50;99.90;;;;;;5000889;28;89988;-33
2022/08/05 08:08:12;;;;;;;5.30;3.38;;;19.50;99.90;;;;;;5000198;28;89291;-34
2022/08/05 08:10:38;;;;;;;3.33;2.10;;;19.50;99.90;;;;;;5000498;28;90499;-33
2022/08/05 08:13:04;;;;;;;3.95;2.70;;;19.60;99.90;;;;;;5000423;28;89853;-31
2022/08/05 08:15:30;;;;;;;3.03;2.70;;;19.70;99.90;;;;;;5000523;28;89802;-32
2022/08/05 08:17:55;;;;;;;4.10;2.70;;;19.80;99.90;;;;;;4999246;28;89101;-31
2022/08/05 08:20:22;;;;;;;4.63;2.45;;;19.90;99.90;;;;;;4999963;28;90151;-34
2022/08/05 08:22:55;;;;;;;8.30;3.55;;;20.00;99.90;;;;;;4999821;28;89572;-33
2022/08/05 08:25:22;;;;;;;4.53;2.60;;;20.20;99.90;;;;;;5000389;28;89478;-30
2022/08/05 08:27:47;;;;;;;3.22;2.63;;;20.40;99.90;;;;;;5000515;28;88482;-31
2022/08/05 08:30:14;;;;;;;4.65;2.55;;;20.50;99.90;;;;;;4998867;28;89110;-31
2022/08/05 08:32:40;;;;;;;3.60;2.40;;;20.60;99.90;;;;;;4999510;28;90300;-34
2022/08/05 08:35:07;;;;;;;6.82;2.22;;;20.60;99.90;;;;;;5000087;28;89478;-32
2022/08/05 08:37:33;;;;;;;2.30;1.97;;;20.60;99.90;;;;;;4999376;28;89048;-32
2022/08/05 08:39:59;;;;;;;4.85;2.70;;;20.60;99.90;;;;;;5000179;28;90068;-34
2022/08/05 08:42:25;;;;;;;2.83;2.58;;;20.60;99.90;;;;;;4998592;28;90576;-33
2022/08/05 08:44:53;;;;;;;2.58;2.45;;;20.50;99.90;;;;;;4999939;28;91158;-32
2022/08/05 08:47:26;;;;;;;;;;;20.50;99.90;;;;;;5000051;28;88094;-33
2022/08/05 08:49:54;;;;;;;2.75;2.55;;;20.50;99.90;;;;;;5000965;28;90493;-31
2022/08/05 08:52:24;;;;;;;3.60;2.55;;;20.50;99.90;;;;;;5002724;28;91055;-30
2022/08/05 08:54:52;;;;;;;2.97;1.90;;;20.60;99.90;;;;;;5010731;28;89540;-34
2022/08/05 08:57:18;;;;;;;2.45;2.28;;;20.60;99.90;;;;;;4999760;28;88861;-34
2022/08/05 08:59:44;;;;;;;7.63;2.33;;;20.70;99.90;;;;;;4999012;28;90913;-31
2022/08/05 09:02:10;;;;;;;2.67;2.20;;;20.80;99.90;;;;;;4999963;28;89585;-31
2022/08/05 09:04:37;;;;;;;2.80;2.53;;;20.80;99.90;;;;;;4999785;28;89461;-32
2022/08/05 09:07:06;;;;;;;3.58;1.98;;;20.90;99.90;;;;;;4998842;28;88842;-33
2022/08/05 09:09:36;;;;;;;2.20;2.00;;;21.00;99.90;;;;;;4998475;28;91065;-33
2022/08/05 09:12:04;;;;;;;6.13;2.10;;;20.90;99.90;;;;;;4998962;28;89710;-34
2022/08/05 09:14:31;;;;;;;4.82;2.55;;;20.90;99.90;;;;;;4998704;28;89237;-32
2022/08/05 09:16:58;;;;;;;6.22;2.33;;;21.00;99.90;;;;;;4999344;28;89422;-32
2022/08/05 09:19:24;;;;;;;2.22;2.03;;;20.90;99.90;;;;;;5002326;28;89900;-33
2022/08/05 09:21:49;;;;;;;1.80;1.63;;;20.90;99.90;;;;;;4998704;28;89207;-33
2022/08/05 09:24:15;;;;;;;1.70;1.60;;;20.90;99.90;;;;;;4999157;28;89384;-33
2022/08/05 09:26:46;;;;;;;3.67;1.48;;;20.90;99.90;;;;;;4999824;28;87810;-32
2022/08/05 09:29:12;;;;;;;1.42;1.33;;;20.90;99.90;;;;;;4998679;28;91116;-32
2022/08/05 09:31:37;;;;;;;4.65;1.70;;;21.00;99.90;;;;;;4998647;28;90413;-33
2022/08/05 09:34:05;;;;;;;1.40;1.30;;;21.10;99.90;;;;;;4999451;28;90375;-33
2022/08/05 09:36:40;;;;;;;3.03;1.67;;;21.10;99.90;;;;;;4998913;28;89065;-31
2022/08/05 09:39:11;;;;;;;1.98;1.65;;;21.10;99.90;;;;;;4998892;28;90562;-34
2022/08/05 09:42:02;;;;;;;2.30;1.70;;;21.10;99.90;;;;;;4999109;28;89796;-33
2022/08/05 09:44:45;;;;;;;1.80;1.35;;;21.10;99.90;;;;;;4985034;28;89702;-34
2022/08/05 09:47:22;;;;;;;4.00;1.98;;;21.10;99.90;;;;;;4998835;28;88915;-34
2022/08/05 09:49:52;;;;;;;5.70;1.73;;;21.10;99.90;;;;;;4999132;28;90329;-33
2022/08/05 09:52:46;;;;;;;4.68;1.42;;;21.20;99.90;;;;;;4998883;28;90523;-33
2022/08/05 09:55:12;;;;;;;2.83;1.58;;;21.30;99.90;;;;;;4996132;28;89781;-32
2022/08/05 09:57:43;;;;;;;1.95;1.70;;;21.40;99.90;;;;;;4998074;28;89112;-34
2022/08/05 10:00:13;;;;;;;5.40;1.35;;;21.40;99.90;;;;;;4998936;28;90261;-31
2022/08/05 10:02:40;;;;;;;1.92;1.30;;;21.50;99.90;;;;;;4998527;28;90127;-32
2022/08/05 10:05:13;;;;;;;2.70;1.57;;;21.40;99.90;;;;;;4998667;28;89720;-31
2022/08/05 10:07:43;;;;;;;1.23;1.10;;;21.50;99.90;;;;;;4998543;28;88355;-32
2022/08/05 10:10:09;;;;;;;1.70;1.40;;;21.40;99.90;;;;;;5000054;28;90199;-33
2022/08/05 10:12:53;;;;;;;1.55;1.33;;;21.30;99.90;;;;;;5002037;28;90206;-33
2022/08/05 10:15:20;;;;;;;1.75;1.27;;;21.30;99.90;;;;;;5001857;28;90603;-31
2022/08/05 10:18:10;;;;;;;3.03;1.47;;;21.30;99.90;;;;;;5001620;28;88435;-32
2022/08/05 10:20:48;;;;;;;1.38;1.20;;;21.30;99.90;;;;;;5002023;28;90482;-31
2022/08/05 10:23:34;;;;;;;1.90;1.17;;;21.30;99.90;;;;;;5001214;28;90531;-34
2022/08/05 10:26:08;;;;;;;2.33;1.73;;;21.30;99.90;;;;;;4990300;28;90645;-35
2022/08/05 10:28:35;;;;;;;2.50;1.38;;;21.30;99.90;;;;;;5002290;28;89163;-33
2022/08/05 10:31:01;;;;;;;2.92;1.23;;;21.40;99.90;;;;;;5001748;28;91383;-31
2022/08/05 10:33:31;;;;;;;1.13;1.10;;;21.60;99.90;;;;;;5001921;28;88973;-32
2022/08/05 10:35:57;;;;;;;1.58;0.77;;;21.80;99.90;;;;;;5001586;28;89436;-32
2022/08/05 10:38:26;;;;;;;1.20;1.08;;;22.00;99.90;;;;;;5001656;28;88890;-32
2022/08/05 10:41:01;;;;;;;2.10;1.13;;;22.40;99.90;;;;;;5001893;28;90259;-34
2022/08/05 10:43:42;;;;;;;1.13;0.93;;;22.70;99.90;;;;;;5001749;28;90110;-32
2022/08/05 10:46:12;;;;;;;4.25;1.02;;;23.10;99.90;;;;;;5002236;28;89204;-35
2022/08/05 10:48:43;;;;;;;1.00;1.00;;;23.30;98.60;;;;;;4999605;28;88820;-31
2022/08/05 10:51:14;;;;;;;2.75;1.02;;;23.30;99.80;;;;;;5001691;28;89129;-36
2022/08/05 10:53:40;;;;;;;2.30;0.70;;;23.40;97.50;;;;;;5001868;28;89240;-32
2022/08/05 10:56:17;;;;;;;1.10;0.90;;;23.30;94.20;;;;;;5001207;28;88052;-34
2022/08/05 10:58:51;;;;;;;3.23;1.53;;;23.20;96.70;;;;;;5001669;28;88564;-33
2022/08/05 11:01:30;;;;;;;3.72;0.90;;;23.30;93.80;;;;;;5000953;28;90232;-33
2022/08/05 11:04:09;;;;;;;1.13;1.13;;;23.40;88.80;;;;;;5001444;28;89512;-31
2022/08/05 11:07:05;;;;;;;3.33;1.25;;;23.50;94.70;;;;;;4988572;28;91579;-34
2022/08/05 11:09:52;;;;;;;4.18;1.65;;;23.60;99.10;;;;;;5001193;28;87766;-31
2022/08/05 11:12:37;;;;;;;2.57;1.10;;;23.80;91.20;;;;;;5001046;28;88941;-34
2022/08/05 11:15:15;;;;;;;3.00;1.17;;;23.70;90.40;;;;;;4996710;28;90544;-33
2022/08/05 11:17:43;;;;;;;1.15;1.08;;;23.80;90.00;;;;;;5001795;28;90850;-33
2022/08/05 11:21:01;;;;;;;1.27;0.88;;;23.70;86.60;;;;;;5001231;28;89290;-36
2022/08/05 11:23:40;;;;;;;1.90;0.88;;;23.70;91.50;;;;;;4959109;28;90357;-33
2022/08/05 11:26:10;;;;;;;0.73;0.73;;;23.70;82.50;;;;;;5001059;28;89395;-36
2022/08/05 11:28:37;;;;;;;0.80;0.80;;;23.70;76.20;;;;;;5001690;28;89596;-32
2022/08/05 11:31:02;;;;;;;2.25;0.70;;;23.70;75.50;;;;;;5001173;28;87673;-34
2022/08/05 11:33:36;;;;;;;0.73;0.70;;;23.70;83.80;;;;;;5001051;28;90844;-33
2022/08/05 11:36:03;;;;;;;1.15;1.00;;;23.80;77.40;;;;;;5001499;28;89404;-34
2022/08/05 11:38:38;;;;;;;0.75;0.75;;;23.90;70.50;;;;;;5000508;28;89622;-32
2022/08/05 11:41:05;;;;;;;1.52;0.80;;;23.90;60.20;;;;;;4987634;28;88769;-35
2022/08/05 11:43:32;;;;;;;0.65;0.65;;;23.80;60.30;;;;;;5000822;28;90402;-31
2022/08/05 11:45:58;;;;;;;1.77;0.88;;;23.70;59.50;;;;;;5001255;28;90004;-35
2022/08/05 11:48:24;;;;;;;1.65;0.95;;;23.50;61.90;;;;;;5001180;28;89360;-32
2022/08/05 11:50:50;;;;;;;0.60;0.60;;;23.70;59.40;;;;;;5000465;28;88836;-33
2022/08/05 11:53:17;;;;;;;0.70;0.70;;;23.60;58.80;;;;;;5000742;28;90628;-36
2022/08/05 11:55:53;;;;;;;0.88;0.80;;;23.60;58.70;;;;;;5000445;28;88761;-33
2022/08/05 11:58:45;;;;;;;1.95;0.50;;;23.60;58.30;;;;;;5000747;28;89381;-34
2022/08/05 12:01:21;;;;;;;0.63;0.60;;;23.70;55.90;;;;;;4997207;28;88773;-32
2022/08/05 12:03:53;;;;;;;0.85;0.47;;;23.50;56.00;;;;;;5003941;28;89698;-33
2022/08/05 12:06:22;;;;;;;2.47;0.82;;;23.40;55.60;;;;;;5007777;28;91176;-32
2022/08/05 12:08:51;;;;;;;0.57;0.38;;;23.50;53.90;;;;;;5000688;28;90416;-32
2022/08/05 12:11:21;;;;;;;2.63;0.70;;;23.40;56.30;;;;;;5000288;28;88694;-31
2022/08/05 12:13:59;;;;;;;1.40;0.55;;;23.50;56.60;;;;;;5000906;28;90793;-34
2022/08/05 12:16:27;;;;;;;3.15;0.85;;;23.70;56.20;;;;;;5000156;28;88772;-33
2022/08/05 12:18:54;;;;;;;0.80;0.65;;;23.80;56.70;;;;;;5034427;22;89882;-34
2022/08/05 12:21:22;;;;;;;0.68;0.68;;;23.80;56.80;;;;;;5000483;28;89809;-35
2022/08/05 12:24:06;;;;;;;0.60;0.60;;;23.70;57.60;;;;;;5001369;28;90502;-33
2022/08/05 12:26:31;;;;;;;0.93;0.63;;;23.80;56.80;;;;;;4999961;28;90496;-34
2022/08/05 12:28:57;;;;;;;3.25;0.88;;;23.70;56.60;;;;;;4998287;28;91222;-33
2022/08/05 12:31:23;;;;;;;1.27;0.40;;;23.80;57.30;;;;;;4999758;28;89224;-33
2022/08/05 12:33:49;;;;;;;7.43;0.50;;;23.80;56.50;;;;;;4999449;28;89974;-32
2022/08/05 12:36:15;;;;;;;5.45;0.95;;;23.70;58.50;;;;;;5000133;28;90015;-34
2022/08/05 12:38:41;;;;;;;1.00;0.80;;;23.80;59.20;;;;;;4999865;28;89749;-34
2022/08/05 12:41:11;;;;;;;0.60;0.60;;;23.80;59.00;;;;;;4999972;28;89528;-36
2022/08/05 12:43:57;;;;;;;2.22;0.70;;;23.80;60.00;;;;;;5000226;28;90151;-33
2022/08/05 12:46:24;;;;;;;1.98;0.70;;;23.90;60.40;;;;;;4988084;28;89987;-34
2022/08/05 12:49:01;;;;;;;1.60;1.00;;;23.90;59.60;;;;;;5000093;28;89322;-32
2022/08/05 12:51:30;;;;;;;0.68;0.60;;;23.80;60.60;;;;;;4999386;28;89311;-33
2022/08/05 12:54:01;;;;;;;0.50;0.50;;;23.80;56.70;;;;;;4999218;28;91068;-33
2022/08/05 12:56:28;;;;;;;1.95;0.57;;;23.50;57.80;;;;;;5007348;28;90642;-33
2022/08/05 12:59:13;;;;;;;1.58;0.57;;;23.30;60.50;;;;;;5003762;28;90708;-32